createdAt,value
2023-02-02T00:00:25.938Z,7.87
2023-02-02T00:02:52.682Z,9.23
2023-02-02T00:05:19.483Z,6.53
2023-02-02T00:07:47.513Z,7.60
2023-02-02T00:10:14.155Z,9.07
2023-02-02T00:12:40.767Z,8.87
2023-02-02T00:15:07.910Z,8.67
2023-02-02T00:17:34.518Z,4.80
2023-02-02T00:20:03.249Z,8.77
2023-02-02T00:22:29.889Z,4.07
2023-02-02T00:24:56.585Z,6.33
2023-02-02T00:27:23.323Z,8.23
2023-02-02T00:29:53.537Z,6.77
2023-02-02T00:32:20.663Z,6.30
2023-02-02T00:34:47.336Z,8.63
2023-02-02T00:37:14.124Z,7.20
2023-02-02T00:39:40.760Z,7.97
2023-02-02T00:42:12.281Z,9.17
2023-02-02T00:44:57.291Z,9.80
2023-02-02T00:47:23.867Z,5.10
2023-02-02T00:49:50.461Z,9.03
2023-02-02T00:52:17.076Z,8.10
2023-02-02T00:54:43.808Z,8.73
2023-02-02T00:57:14.183Z,8.90
2023-02-02T00:59:41.781Z,4.17
2023-02-02T01:02:10.468Z,5.03
2023-02-02T01:04:37.780Z,11.20
2023-02-02T01:07:04.853Z,7.13
2023-02-02T01:09:31.558Z,8.40
2023-02-02T01:11:58.235Z,4.53
2023-02-02T01:14:25.083Z,6.03
2023-02-02T01:16:52.727Z,7.43
2023-02-02T01:19:19.377Z,10.23
2023-02-02T01:21:46.075Z,6.27
2023-02-02T01:24:15.568Z,5.60
2023-02-02T01:26:42.423Z,7.53
2023-02-02T01:29:09.048Z,5.23
2023-02-02T01:31:35.686Z,4.03
2023-02-02T01:34:02.349Z,6.20
2023-02-02T01:36:29.364Z,4.17
2023-02-02T01:38:55.993Z,1.30
2023-02-02T01:41:25.234Z,1.13
2023-02-02T01:44:16.664Z,1.23
2023-02-02T01:46:43.296Z,3.07
2023-02-02T01:49:16.547Z,0.50
2023-02-02T01:51:50.871Z,0.67
2023-02-02T01:54:23.311Z,0.87
2023-02-02T01:56:59.981Z,1.00
2023-02-02T01:59:28.460Z,0.83
2023-02-02T02:01:56.785Z,1.03
2023-02-02T02:04:25.238Z,0.67
2023-02-02T02:06:53.519Z,0.93
2023-02-02T02:09:23.617Z,0.20
2023-02-02T02:11:53.310Z,0.53
2023-02-02T02:14:39.663Z,0.40
2023-02-02T02:17:20.943Z,0.20
2023-02-02T02:20:53.098Z,0.30
2023-02-02T02:24:06.238Z,0.23
2023-02-02T02:27:11.943Z,0.20
2023-02-02T02:30:33.136Z,0.20
2023-02-02T02:33:28.345Z,0.10
2023-02-02T02:36:17.171Z,0.10
2023-02-02T02:39:05.386Z,0.70
2023-02-02T02:41:37.577Z,0.10
2023-02-02T02:44:09.641Z,0.20
2023-02-02T02:46:37.602Z,0.30
2023-02-02T02:49:07.231Z,0.50
2023-02-02T02:51:47.647Z,0.23
2023-02-02T02:54:19.359Z,0.10
2023-02-02T02:56:54.974Z,0.20
2023-02-02T02:59:55.825Z,0.17
2023-02-02T03:02:45.373Z,0.87
2023-02-02T03:05:31.756Z,0.20
2023-02-02T03:08:04.984Z,0.13
2023-02-02T03:10:32.730Z,0.10
2023-02-02T03:12:59.454Z,0.10
2023-02-02T03:15:26.287Z,0.10
2023-02-02T03:17:54.124Z,0.03
2023-02-02T03:20:20.765Z,0.10
2023-02-02T03:22:47.380Z,0.10
2023-02-02T03:25:14.140Z,0.10
2023-02-02T03:27:40.826Z,0.10
2023-02-02T03:30:10.600Z,0.20
2023-02-02T03:32:38.280Z,0.00
2023-02-02T03:35:05.522Z,0.37
2023-02-02T03:37:32.300Z,0.60
2023-02-02T03:39:59.013Z,0.10
2023-02-02T03:42:25.640Z,0.07
2023-02-02T03:44:52.274Z,0.00
2023-02-02T03:47:18.872Z,0.30
2023-02-02T03:49:45.468Z,0.40
2023-02-02T03:52:12.059Z,0.20
2023-02-02T03:54:38.661Z,0.00
2023-02-02T03:57:05.282Z,0.03
2023-02-02T03:59:31.908Z,0.23
2023-02-02T04:01:58.551Z,0.10
2023-02-02T04:04:25.260Z,0.10
2023-02-02T04:06:54.987Z,0.00
2023-02-02T04:09:21.634Z,1.80
2023-02-02T04:11:48.220Z,0.20
2023-02-02T04:14:14.983Z,0.10
2023-02-02T04:16:41.618Z,0.30
2023-02-02T04:19:08.490Z,0.30
2023-02-02T04:21:35.128Z,0.60
2023-02-02T04:24:01.775Z,2.00
2023-02-02T04:26:28.499Z,0.43
2023-02-02T04:28:55.241Z,0.50
2023-02-02T04:31:22.089Z,0.67
2023-02-02T04:33:48.905Z,0.40
2023-02-02T04:36:15.635Z,0.40
2023-02-02T04:38:42.364Z,0.83
2023-02-02T04:41:14.569Z,1.23
2023-02-02T04:43:41.283Z,0.50
2023-02-02T04:46:08.097Z,1.07
2023-02-02T04:48:34.837Z,1.33
2023-02-02T04:51:06.995Z,0.60
2023-02-02T04:53:33.684Z,0.60
2023-02-02T04:56:12.490Z,0.63
2023-02-02T04:58:39.220Z,1.10
2023-02-02T05:01:18.128Z,1.13
2023-02-02T05:03:45.508Z,1.40
2023-02-02T05:06:14.734Z,1.23
2023-02-02T05:08:45.424Z,1.37
2023-02-02T05:11:15.539Z,1.80
2023-02-02T05:13:47.077Z,1.50
2023-02-02T05:16:14.104Z,1.80
2023-02-02T05:18:41.968Z,1.30
2023-02-02T05:21:08.924Z,1.40
2023-02-02T05:23:35.662Z,1.70
2023-02-02T05:26:02.328Z,3.03
2023-02-02T05:28:29.452Z,1.50
2023-02-02T05:30:56.175Z,3.40
2023-02-02T05:33:22.831Z,1.40
2023-02-02T05:35:49.652Z,3.13
2023-02-02T05:38:16.688Z,4.33
2023-02-02T05:40:43.445Z,1.43
2023-02-02T05:43:10.140Z,1.73
2023-02-02T05:45:36.767Z,2.10
2023-02-02T05:48:03.446Z,3.47
2023-02-02T05:50:30.078Z,3.27
2023-02-02T05:52:57.485Z,5.93
2023-02-02T05:55:24.409Z,4.27
2023-02-02T05:57:51.199Z,4.07
2023-02-02T06:00:18.254Z,4.80
2023-02-02T06:02:44.915Z,2.83
2023-02-02T06:05:11.834Z,2.83
2023-02-02T06:07:38.547Z,3.67
2023-02-02T06:10:05.533Z,2.60
2023-02-02T06:12:32.140Z,2.33
2023-02-02T06:14:58.825Z,1.77
2023-02-02T06:17:25.463Z,2.17
2023-02-02T06:19:52.077Z,1.30
2023-02-02T06:22:18.680Z,3.23
2023-02-02T06:24:45.273Z,3.10
2023-02-02T06:27:11.859Z,1.40
2023-02-02T06:29:38.467Z,1.67
2023-02-02T06:32:05.154Z,1.20
2023-02-02T06:34:31.788Z,2.00
2023-02-02T06:36:58.410Z,1.57
2023-02-02T06:39:25.081Z,1.33
2023-02-02T06:41:52.048Z,1.40
2023-02-02T06:44:20.844Z,1.80
2023-02-02T06:46:47.629Z,1.43
2023-02-02T06:49:14.762Z,1.30
2023-02-02T06:51:41.453Z,1.57
2023-02-02T06:54:08.068Z,1.50
2023-02-02T06:56:34.667Z,3.17
2023-02-02T06:59:01.362Z,1.43
2023-02-02T07:01:28.099Z,1.27
2023-02-02T07:03:54.768Z,1.50
2023-02-02T07:06:27.439Z,1.40
2023-02-02T07:09:01.201Z,1.13
2023-02-02T07:11:30.283Z,3.33
2023-02-02T07:13:57.204Z,1.40
2023-02-02T07:16:23.898Z,2.77
2023-02-02T07:18:50.592Z,1.40
2023-02-02T07:21:22.462Z,1.50
2023-02-02T07:23:49.733Z,1.57
2023-02-02T07:26:18.977Z,2.60
2023-02-02T07:28:46.671Z,2.10
2023-02-02T07:31:18.549Z,1.57
2023-02-02T07:33:46.297Z,3.40
2023-02-02T07:36:18.516Z,1.40
2023-02-02T07:38:46.974Z,2.63
2023-02-02T07:41:15.407Z,1.80
2023-02-02T07:43:42.635Z,1.50
2023-02-02T07:46:12.713Z,2.00
2023-02-02T07:48:40.644Z,2.60
2023-02-02T07:51:11.185Z,1.67
2023-02-02T07:53:38.040Z,1.50
2023-02-02T07:56:22.659Z,2.60
2023-02-02T07:58:52.475Z,1.73
2023-02-02T08:01:20.489Z,2.13
2023-02-02T08:03:47.275Z,1.70
2023-02-02T08:06:32.574Z,1.77
2023-02-02T08:09:00.415Z,2.83
2023-02-02T08:11:28.189Z,1.60
2023-02-02T08:13:57.694Z,3.37
2023-02-02T08:16:25.370Z,3.17
2023-02-02T08:18:52.638Z,2.13
2023-02-02T08:21:20.359Z,2.37
2023-02-02T08:23:47.512Z,3.33
2023-02-02T08:26:18.681Z,1.80
2023-02-02T08:28:48.260Z,1.63
2023-02-02T08:31:28.060Z,1.63
2023-02-02T08:33:54.899Z,1.30
2023-02-02T08:36:23.305Z,2.40
2023-02-02T08:38:50.879Z,2.53
2023-02-02T08:41:22.909Z,2.97
2023-02-02T08:43:50.727Z,3.57
2023-02-02T08:46:19.286Z,1.70
2023-02-02T08:48:47.631Z,1.70
2023-02-02T08:51:16.474Z,1.50
2023-02-02T08:53:43.512Z,2.03
2023-02-02T08:56:18.016Z,1.50
2023-02-02T08:58:56.264Z,2.33
2023-02-02T09:01:33.409Z,3.80
2023-02-02T09:04:05.960Z,2.10
2023-02-02T09:06:37.751Z,2.93
2023-02-02T09:09:07.007Z,2.63
2023-02-02T09:11:34.725Z,2.13
2023-02-02T09:14:02.990Z,2.13
2023-02-02T09:16:30.193Z,1.70
2023-02-02T09:18:56.976Z,1.90
2023-02-02T09:21:24.052Z,4.63
2023-02-02T09:23:53.692Z,3.40
2023-02-02T09:26:26.316Z,3.07
2023-02-02T09:28:58.561Z,2.87
2023-02-02T09:31:26.068Z,5.80
2023-02-02T09:33:52.877Z,3.77
2023-02-02T09:36:22.338Z,3.83
2023-02-02T09:38:50.528Z,4.37
2023-02-02T09:41:38.957Z,4.10
2023-02-02T09:44:30.400Z,2.37
2023-02-02T09:47:15.454Z,2.10
2023-02-02T09:50:15.189Z,1.53
2023-02-02T09:52:58.070Z,4.20
2023-02-02T09:55:35.489Z,5.33
2023-02-02T09:58:11.762Z,3.40
2023-02-02T10:00:44.324Z,5.67
2023-02-02T10:03:27.165Z,6.90
2023-02-02T10:06:02.289Z,6.47
2023-02-02T10:08:36.251Z,4.77
2023-02-02T10:11:23.955Z,3.93
2023-02-02T10:13:52.670Z,4.83
2023-02-02T10:16:22.607Z,7.00
2023-02-02T10:19:05.703Z,7.23
2023-02-02T10:21:59.723Z,8.50
2023-02-02T10:24:29.416Z,9.37
2023-02-02T10:27:04.510Z,3.77
2023-02-02T10:29:59.229Z,6.53
2023-02-02T10:32:31.336Z,7.40
2023-02-02T10:35:16.430Z,6.80
2023-02-02T10:37:50.196Z,7.80
2023-02-02T10:40:19.702Z,4.83
2023-02-02T10:43:37.259Z,9.27
2023-02-02T10:46:05.731Z,5.17
2023-02-02T10:48:35.757Z,7.77
2023-02-02T10:51:11.017Z,5.00
2023-02-02T10:53:38.720Z,6.47
2023-02-02T10:56:08.753Z,6.90
2023-02-02T10:58:50.390Z,8.43
2023-02-02T11:01:18.197Z,7.43
2023-02-02T11:03:45.157Z,5.77
2023-02-02T11:06:31.972Z,10.23
2023-02-02T11:09:03.890Z,9.47
2023-02-02T11:11:39.675Z,7.13
2023-02-02T11:14:09.409Z,8.63
2023-02-02T11:16:43.516Z,5.63
2023-02-02T11:19:19.945Z,4.23
2023-02-02T11:21:53.567Z,7.17
2023-02-02T11:24:38.747Z,9.53
2023-02-02T11:27:28.394Z,7.43
2023-02-02T11:29:57.509Z,8.27
2023-02-02T11:32:35.597Z,6.83
2023-02-02T11:35:11.110Z,6.37
2023-02-02T11:37:51.457Z,6.50
2023-02-02T11:40:31.671Z,10.00
2023-02-02T11:43:02.387Z,6.53
2023-02-02T11:45:41.344Z,6.23
2023-02-02T11:48:18.472Z,7.87
2023-02-02T11:50:57.218Z,5.30
2023-02-02T11:53:31.544Z,8.23
2023-02-02T11:56:11.184Z,7.37
2023-02-02T11:58:49.765Z,6.07
2023-02-02T12:01:40.824Z,5.90
2023-02-02T12:04:26.321Z,8.17
2023-02-02T12:06:53.038Z,5.77
2023-02-02T12:09:22.923Z,6.47
2023-02-02T12:12:30.244Z,6.83
2023-02-02T12:15:14.546Z,5.30
2023-02-02T12:17:44.970Z,6.47
2023-02-02T12:20:43.097Z,7.43
2023-02-02T12:23:15.556Z,4.97
2023-02-02T12:26:02.341Z,7.93
2023-02-02T12:28:45.538Z,7.70
2023-02-02T12:31:48.415Z,7.47
2023-02-02T12:34:46.852Z,5.57
2023-02-02T12:37:32.129Z,9.83
2023-02-02T12:40:25.805Z,4.80
2023-02-02T12:43:00.395Z,7.03
2023-02-02T12:45:39.396Z,4.47
2023-02-02T12:48:39.174Z,7.67
2023-02-02T12:51:27.184Z,5.23
2023-02-02T12:54:32.830Z,4.00
2023-02-02T12:57:21.363Z,7.00
2023-02-02T13:00:09.721Z,7.33
2023-02-02T13:03:13.333Z,4.17
2023-02-02T13:05:53.455Z,5.70
2023-02-02T13:08:51.800Z,8.20
2023-02-02T13:11:37.371Z,5.13
2023-02-02T13:14:16.314Z,4.27
2023-02-02T13:16:48.468Z,6.30
2023-02-02T13:19:24.863Z,5.47
2023-02-02T13:21:56.027Z,5.57
2023-02-02T13:24:34.861Z,8.53
2023-02-02T13:27:05.815Z,3.90
2023-02-02T13:29:48.389Z,5.87
2023-02-02T13:32:39.670Z,5.27
2023-02-02T13:35:18.070Z,8.63
2023-02-02T13:38:06.991Z,7.63
2023-02-02T13:40:44.147Z,7.80
2023-02-02T13:43:48.378Z,6.60
2023-02-02T13:46:59.358Z,5.00
2023-02-02T13:49:29.152Z,5.53
2023-02-02T13:52:07.919Z,6.40
2023-02-02T13:54:56.292Z,6.00
2023-02-02T13:57:56.928Z,3.43
2023-02-02T14:00:28.728Z,9.67
2023-02-02T14:03:07.313Z,5.33
2023-02-02T14:05:38.007Z,9.77
2023-02-02T14:08:19.235Z,6.73
2023-02-02T14:10:51.937Z,8.13
2023-02-02T14:14:00.638Z,5.00
2023-02-02T14:16:32.890Z,11.23
2023-02-02T14:19:04.398Z,5.20
2023-02-02T14:21:34.113Z,6.13
2023-02-02T14:24:28.708Z,6.67
2023-02-02T14:27:01.519Z,5.37
2023-02-02T14:29:31.525Z,5.70
2023-02-02T14:31:58.279Z,2.97
2023-02-02T14:34:39.325Z,8.73
2023-02-02T14:37:29.915Z,3.67
2023-02-02T14:40:06.101Z,3.90
2023-02-02T14:43:03.600Z,6.67
2023-02-02T14:45:31.468Z,7.10
2023-02-02T14:48:11.424Z,9.23
2023-02-02T14:50:38.168Z,4.37
2023-02-02T14:53:16.776Z,3.20
2023-02-02T14:56:11.329Z,7.47
2023-02-02T14:59:16.040Z,5.13
2023-02-02T15:01:52.705Z,4.97
2023-02-02T15:04:23.237Z,3.07
2023-02-02T15:06:52.711Z,3.93
2023-02-02T15:09:23.415Z,2.90
2023-02-02T15:12:01.104Z,4.90
2023-02-02T15:14:38.007Z,2.80
2023-02-02T15:17:24.140Z,2.17
2023-02-02T15:20:13.100Z,7.43
2023-02-02T15:23:00.852Z,2.13
2023-02-02T15:25:37.013Z,3.37
2023-02-02T15:28:33.433Z,2.30
2023-02-02T15:31:11.044Z,4.00
2023-02-02T15:33:44.756Z,2.60
2023-02-02T15:36:20.091Z,2.53
2023-02-02T15:38:49.315Z,3.10
2023-02-02T15:41:25.021Z,2.70
2023-02-02T15:43:53.208Z,2.60
2023-02-02T15:46:33.444Z,2.37
2023-02-02T15:49:33.424Z,2.50
2023-02-02T15:52:10.007Z,3.17
2023-02-02T15:54:39.684Z,3.20
2023-02-02T15:57:24.894Z,2.63
2023-02-02T15:59:51.944Z,4.07
2023-02-02T16:02:31.207Z,2.40
2023-02-02T16:04:57.908Z,2.53
2023-02-02T16:07:31.265Z,2.33
2023-02-02T16:10:08.068Z,2.00
2023-02-02T16:12:35.439Z,2.40
2023-02-02T16:15:02.241Z,2.80
2023-02-02T16:17:32.940Z,2.90
2023-02-02T16:20:14.530Z,2.30
2023-02-02T16:22:42.090Z,2.90
2023-02-02T16:25:13.058Z,2.93
2023-02-02T16:27:46.108Z,2.97
2023-02-02T16:30:30.949Z,2.93
2023-02-02T16:32:57.638Z,3.73
2023-02-02T16:35:36.839Z,3.70
2023-02-02T16:38:24.149Z,5.13
2023-02-02T16:41:11.748Z,3.60
2023-02-02T16:43:40.791Z,3.70
2023-02-02T16:46:15.117Z,4.37
2023-02-02T16:48:45.301Z,3.80
2023-02-02T16:51:18.052Z,4.97
2023-02-02T16:53:48.102Z,4.93
2023-02-02T16:56:28.940Z,4.13
2023-02-02T16:58:58.078Z,4.40
2023-02-02T17:01:41.688Z,4.30
2023-02-02T17:04:33.990Z,5.10
2023-02-02T17:07:13.117Z,4.93
2023-02-02T17:09:42.376Z,5.10
2023-02-02T17:12:35.344Z,4.70
2023-02-02T17:15:16.343Z,5.43
2023-02-02T17:17:44.552Z,5.00
2023-02-02T17:20:13.090Z,4.53
2023-02-02T17:22:44.351Z,5.90
2023-02-02T17:25:21.499Z,4.53
2023-02-02T17:27:48.424Z,5.70
2023-02-02T17:30:17.591Z,5.10
2023-02-02T17:32:44.429Z,6.13
2023-02-02T17:35:15.961Z,6.07
2023-02-02T17:37:42.766Z,6.87
2023-02-02T17:40:14.677Z,7.90
2023-02-02T17:42:42.773Z,7.67
2023-02-02T17:45:23.021Z,5.47
2023-02-02T17:47:51.097Z,6.47
2023-02-02T17:50:18.016Z,6.17
2023-02-02T17:52:45.929Z,6.77
2023-02-02T17:55:21.666Z,7.50
2023-02-02T17:57:49.041Z,5.83
2023-02-02T18:00:17.447Z,6.10
2023-02-02T18:02:44.695Z,8.97
2023-02-02T18:05:13.425Z,7.97
2023-02-02T18:07:40.140Z,10.53
2023-02-02T18:10:07.772Z,8.87
2023-02-02T18:12:37.240Z,9.30
2023-02-02T18:15:06.028Z,8.30
2023-02-02T18:17:34.115Z,11.30
2023-02-02T18:20:00.971Z,10.20
2023-02-02T18:22:27.602Z,8.90
2023-02-02T18:24:54.280Z,9.53
2023-02-02T18:27:20.956Z,8.87
2023-02-02T18:29:48.254Z,9.47
2023-02-02T18:32:16.018Z,9.30
2023-02-02T18:34:42.730Z,16.20
2023-02-02T18:37:09.444Z,11.43
2023-02-02T18:39:36.354Z,10.60
2023-02-02T18:42:03.176Z,11.53
2023-02-02T18:44:31.545Z,10.30
2023-02-02T18:46:58.161Z,10.03
2023-02-02T18:49:24.880Z,11.27
2023-02-02T18:51:51.518Z,11.23
2023-02-02T18:54:18.153Z,11.97
2023-02-02T18:56:44.951Z,9.30
2023-02-02T18:59:11.575Z,10.13
2023-02-02T19:01:38.293Z,10.17
2023-02-02T19:04:05.248Z,9.97
2023-02-02T19:06:50.640Z,10.23
2023-02-02T19:09:17.502Z,9.77
2023-02-02T19:11:50.119Z,10.50
2023-02-02T19:14:18.583Z,10.17
2023-02-02T19:16:47.725Z,12.43
2023-02-02T19:19:30.309Z,12.40
2023-02-02T19:21:58.639Z,11.70
2023-02-02T19:24:26.850Z,12.40
2023-02-02T19:26:53.916Z,14.23
2023-02-02T19:29:23.352Z,11.17
2023-02-02T19:31:59.505Z,10.93
2023-02-02T19:34:26.325Z,12.73
2023-02-02T19:36:52.892Z,10.10
2023-02-02T19:39:30.746Z,9.80
2023-02-02T19:42:00.614Z,11.73
2023-02-02T19:44:34.240Z,11.07
2023-02-02T19:47:02.718Z,14.73
2023-02-02T19:49:36.908Z,11.03
2023-02-02T19:52:04.259Z,11.17
2023-02-02T19:54:42.009Z,14.30
2023-02-02T19:57:33.349Z,11.20
2023-02-02T20:00:11.344Z,12.53
2023-02-02T20:02:58.782Z,14.37
2023-02-02T20:05:35.807Z,10.73
2023-02-02T20:08:13.276Z,14.47
2023-02-02T20:10:43.471Z,11.23
2023-02-02T20:13:22.698Z,15.33
2023-02-02T20:15:52.051Z,16.50
2023-02-02T20:18:26.583Z,11.60
2023-02-02T20:20:56.104Z,12.93
2023-02-02T20:23:42.128Z,14.97
2023-02-02T20:26:23.645Z,10.87
2023-02-02T20:28:55.721Z,7.57
2023-02-02T20:31:25.898Z,11.73
2023-02-02T20:33:54.985Z,6.60
2023-02-02T20:36:36.662Z,12.37
2023-02-02T20:39:26.167Z,12.23
2023-02-02T20:41:55.040Z,5.60
2023-02-02T20:44:24.220Z,10.90
2023-02-02T20:46:53.869Z,5.40
2023-02-02T20:49:25.472Z,7.30
2023-02-02T20:51:55.137Z,6.27
2023-02-02T20:54:29.042Z,6.43
2023-02-02T20:56:55.742Z,8.67
2023-02-02T20:59:22.455Z,5.13
2023-02-02T21:01:50.416Z,5.13
2023-02-02T21:04:17.939Z,5.73
2023-02-02T21:06:44.750Z,5.90
2023-02-02T21:09:15.408Z,6.20
2023-02-02T21:11:42.711Z,7.70
2023-02-02T21:14:09.973Z,4.60
2023-02-02T21:16:36.980Z,6.00
2023-02-02T21:19:04.856Z,3.63
2023-02-02T21:21:31.503Z,5.40
2023-02-02T21:23:58.228Z,5.13
2023-02-02T21:26:27.833Z,5.90
2023-02-02T21:28:54.459Z,4.37
2023-02-02T21:31:21.446Z,4.90
2023-02-02T21:33:50.572Z,4.97
2023-02-02T21:36:20.792Z,5.07
2023-02-02T21:38:47.519Z,5.60
2023-02-02T21:41:15.572Z,4.43
2023-02-02T21:43:44.109Z,6.40
2023-02-02T21:46:22.413Z,5.53
2023-02-02T21:48:49.155Z,3.73
2023-02-02T21:51:21.763Z,4.10
2023-02-02T21:53:51.338Z,6.30
2023-02-02T21:56:32.811Z,5.13
2023-02-02T21:59:15.713Z,6.47
2023-02-02T22:01:43.466Z,3.37
2023-02-02T22:04:25.129Z,8.57
2023-02-02T22:07:11.753Z,4.47
2023-02-02T22:09:46.642Z,4.00
2023-02-02T22:12:20.389Z,5.50
2023-02-02T22:14:48.513Z,5.73
2023-02-02T22:17:23.748Z,5.37
2023-02-02T22:20:01.506Z,5.90
2023-02-02T22:22:35.195Z,6.33
2023-02-02T22:25:17.700Z,3.57
2023-02-02T22:27:50.803Z,5.67
2023-02-02T22:30:34.705Z,3.63
2023-02-02T22:33:01.451Z,7.90
2023-02-02T22:35:28.232Z,6.70
2023-02-02T22:37:54.852Z,3.33
2023-02-02T22:40:24.698Z,6.20
2023-02-02T22:42:53.507Z,3.83
2023-02-02T22:45:20.698Z,3.63
2023-02-02T22:47:47.996Z,8.63
2023-02-02T22:50:21.988Z,6.07
2023-02-02T22:52:48.672Z,6.43
2023-02-02T22:55:17.275Z,4.13
2023-02-02T22:57:44.011Z,4.77
2023-02-02T23:00:16.828Z,8.10
2023-02-02T23:02:43.647Z,6.03
2023-02-02T23:05:13.231Z,7.10
2023-02-02T23:07:39.864Z,5.67
2023-02-02T23:10:07.705Z,5.40
2023-02-02T23:12:34.759Z,4.97
2023-02-02T23:15:01.386Z,7.90
2023-02-02T23:17:28.054Z,3.43
2023-02-02T23:19:54.756Z,7.80
2023-02-02T23:22:21.479Z,4.17
2023-02-02T23:24:51.140Z,8.47
2023-02-02T23:27:17.793Z,8.60
2023-02-02T23:29:44.420Z,6.03
2023-02-02T23:32:11.080Z,10.57
2023-02-02T23:34:37.728Z,6.50
2023-02-02T23:37:04.514Z,3.47
2023-02-02T23:39:31.146Z,6.67
2023-02-02T23:41:57.933Z,5.50
2023-02-02T23:44:24.570Z,3.93
2023-02-02T23:46:52.870Z,8.83
2023-02-02T23:49:19.892Z,4.07
2023-02-02T23:51:46.938Z,5.23
2023-02-02T23:54:14.211Z,4.50
2023-02-02T23:56:42.272Z,4.73
2023-02-02T23:59:09.655Z,5.10
